createdAt,value
2022-12-25T00:01:40.929Z,29.58
2022-12-25T00:04:07.571Z,34.70
2022-12-25T00:06:34.310Z,31.15
2022-12-25T00:09:01.102Z,27.23
2022-12-25T00:11:27.828Z,25.60
2022-12-25T00:13:54.480Z,26.75
2022-12-25T00:16:24.172Z,19.33
2022-12-25T00:18:51.722Z,20.88
2022-12-25T00:21:19.804Z,20.83
2022-12-25T00:23:46.736Z,25.10
2022-12-25T00:26:16.126Z,23.08
2022-12-25T00:28:43.245Z,20.27
2022-12-25T00:31:15.287Z,20.95
2022-12-25T00:33:43.823Z,19.25
2022-12-25T00:36:11.420Z,16.40
2022-12-25T00:38:39.123Z,21.27
2022-12-25T00:41:07.495Z,21.80
2022-12-25T00:43:34.160Z,20.73
2022-12-25T00:46:04.119Z,18.02
2022-12-25T00:48:31.141Z,19.20
2022-12-25T00:51:02.532Z,18.58
2022-12-25T00:53:30.040Z,18.63
2022-12-25T00:55:59.220Z,18.65
2022-12-25T00:58:27.680Z,19.83
2022-12-25T01:00:55.037Z,22.08
2022-12-25T01:03:22.635Z,20.70
2022-12-25T01:05:57.937Z,20.10
2022-12-25T01:08:24.997Z,21.83
2022-12-25T01:11:08.781Z,20.75
2022-12-25T01:13:37.338Z,20.30
2022-12-25T01:16:09.367Z,15.82
2022-12-25T01:18:36.494Z,17.30
2022-12-25T01:21:11.040Z,12.73
2022-12-25T01:23:38.364Z,15.13
2022-12-25T01:26:06.236Z,14.55
2022-12-25T01:28:33.136Z,13.27
2022-12-25T01:30:59.782Z,13.55
2022-12-25T01:33:28.137Z,15.25
2022-12-25T01:35:54.811Z,14.23
2022-12-25T01:38:21.855Z,10.77
2022-12-25T01:40:48.491Z,11.07
2022-12-25T01:43:27.540Z,12.50
2022-12-25T01:45:54.496Z,12.40
2022-12-25T01:48:24.922Z,15.70
2022-12-25T01:50:56.766Z,14.13
2022-12-25T01:53:24.863Z,10.90
2022-12-25T01:55:55.672Z,16.92
2022-12-25T01:58:22.546Z,14.23
2022-12-25T02:03:26.286Z,14.02
2022-12-25T02:05:53.380Z,12.90
2022-12-25T02:08:21.395Z,11.95
2022-12-25T02:10:48.461Z,12.82
2022-12-25T02:13:17.432Z,10.80
2022-12-25T02:16:23.353Z,9.00
2022-12-25T02:18:54.299Z,10.77
2022-12-25T02:22:00.062Z,14.35
2022-12-25T02:24:50.554Z,11.90
2022-12-25T02:27:54.994Z,15.10
2022-12-25T02:30:22.443Z,13.57
2022-12-25T02:33:17.704Z,16.20
2022-12-25T02:35:48.065Z,18.15
2022-12-25T02:38:25.694Z,17.08
2022-12-25T02:40:56.559Z,15.57
2022-12-25T02:43:51.118Z,12.50
2022-12-25T02:46:40.620Z,18.73
2022-12-25T02:49:29.955Z,12.77
2022-12-25T02:52:19.673Z,13.27
2022-12-25T02:55:10.839Z,12.10
2022-12-25T02:57:59.826Z,10.65
2022-12-25T03:00:45.032Z,18.50
2022-12-25T03:03:31.411Z,14.27
2022-12-25T03:06:20.190Z,13.48
2022-12-25T03:08:49.066Z,14.10
2022-12-25T03:11:33.983Z,16.77
2022-12-25T03:14:29.462Z,12.00
2022-12-25T03:16:58.214Z,12.60
2022-12-25T03:19:48.176Z,16.25
2022-12-25T03:22:45.698Z,17.17
2022-12-25T03:25:30.651Z,17.98
2022-12-25T03:27:58.874Z,16.23
2022-12-25T03:30:50.075Z,17.98
2022-12-25T03:34:25.180Z,13.88
2022-12-25T03:37:37.737Z,18.20
2022-12-25T03:40:36.238Z,16.75
2022-12-25T03:43:37.775Z,14.73
2022-12-25T03:46:25.339Z,10.68
2022-12-25T03:49:13.765Z,9.15
2022-12-25T03:52:00.718Z,9.98
2022-12-25T03:54:48.252Z,12.02
2022-12-25T03:57:33.616Z,13.80
2022-12-25T04:00:18.857Z,8.57
2022-12-25T04:03:04.032Z,12.90
2022-12-25T04:05:49.158Z,10.20
2022-12-25T04:08:34.338Z,12.05
2022-12-25T04:11:19.793Z,14.10
2022-12-25T04:14:05.133Z,12.10
2022-12-25T04:16:50.712Z,13.90
2022-12-25T04:19:36.180Z,9.48
2022-12-25T04:22:21.623Z,12.10
2022-12-25T04:25:07.052Z,12.10
2022-12-25T04:27:52.367Z,12.48
2022-12-25T04:30:37.614Z,13.52
2022-12-25T04:33:22.998Z,8.35
2022-12-25T04:36:08.389Z,11.88
2022-12-25T04:38:35.881Z,14.82
2022-12-25T04:41:03.176Z,11.55
2022-12-25T04:43:30.525Z,10.25
2022-12-25T04:45:59.009Z,8.70
2022-12-25T04:48:27.556Z,13.07
2022-12-25T04:50:54.320Z,11.82
2022-12-25T04:53:21.093Z,8.25
2022-12-25T04:55:47.790Z,13.50
2022-12-25T04:58:14.666Z,12.52
2022-12-25T05:00:41.521Z,15.63
2022-12-25T05:03:08.862Z,11.73
2022-12-25T05:05:39.607Z,11.60
2022-12-25T05:08:06.607Z,10.93
2022-12-25T05:10:33.678Z,9.98
2022-12-25T05:13:00.406Z,9.13
2022-12-25T05:15:27.187Z,11.07
2022-12-25T05:17:53.924Z,11.77
2022-12-25T05:20:20.740Z,14.82
2022-12-25T05:22:47.698Z,10.18
2022-12-25T05:25:14.462Z,12.35
2022-12-25T05:27:41.157Z,12.77
2022-12-25T05:30:09.020Z,9.20
2022-12-25T05:32:35.942Z,9.55
2022-12-25T05:35:03.064Z,9.48
2022-12-25T05:37:29.786Z,11.70
2022-12-25T05:39:56.522Z,9.60
2022-12-25T05:42:23.262Z,12.65
2022-12-25T05:44:49.983Z,16.67
2022-12-25T05:47:16.664Z,15.55
2022-12-25T05:49:45.701Z,12.43
2022-12-25T05:52:12.668Z,18.63
2022-12-25T05:54:39.473Z,14.70
2022-12-25T05:57:06.462Z,10.68
2022-12-25T05:59:33.788Z,14.32
2022-12-25T06:02:00.707Z,14.80
2022-12-25T06:04:27.690Z,12.65
2022-12-25T06:06:54.495Z,12.65
2022-12-25T06:09:21.301Z,12.48
2022-12-25T06:11:48.120Z,12.15
2022-12-25T06:14:15.771Z,10.55
2022-12-25T06:16:42.595Z,14.13
2022-12-25T06:19:09.477Z,11.65
2022-12-25T06:21:36.396Z,10.52
2022-12-25T06:24:03.487Z,15.13
2022-12-25T06:26:30.285Z,14.15
2022-12-25T06:28:57.021Z,19.98
2022-12-25T06:31:24.488Z,19.83
2022-12-25T06:33:51.461Z,17.38
2022-12-25T06:36:26.368Z,20.02
2022-12-25T06:38:53.686Z,14.80
2022-12-25T06:41:23.052Z,16.27
2022-12-25T06:44:00.920Z,16.10
2022-12-25T06:46:29.634Z,13.93
2022-12-25T06:48:58.158Z,8.95
2022-12-25T06:51:29.271Z,11.80
2022-12-25T06:53:56.385Z,15.50
2022-12-25T06:56:26.152Z,9.90
2022-12-25T06:59:04.711Z,12.48
2022-12-25T07:01:48.261Z,10.68
2022-12-25T07:04:32.621Z,12.33
2022-12-25T07:07:04.395Z,11.27
2022-12-25T07:09:35.846Z,13.07
2022-12-25T07:12:15.368Z,14.93
2022-12-25T07:14:42.334Z,22.85
2022-12-25T07:17:09.066Z,17.52
2022-12-25T07:19:41.049Z,14.45
2022-12-25T07:22:11.568Z,17.17
2022-12-25T07:24:38.244Z,17.60
2022-12-25T07:27:05.037Z,12.68
2022-12-25T07:29:31.855Z,20.65
2022-12-25T07:31:58.709Z,13.52
2022-12-25T07:34:25.845Z,13.60
2022-12-25T07:36:54.894Z,9.77
2022-12-25T07:39:21.562Z,11.38
2022-12-25T07:41:48.539Z,11.60
2022-12-25T07:44:16.071Z,13.07
2022-12-25T07:46:43.230Z,14.02
2022-12-25T07:49:11.328Z,18.02
2022-12-25T07:51:38.194Z,14.70
2022-12-25T07:54:05.238Z,15.73
2022-12-25T07:56:32.246Z,16.48
2022-12-25T07:58:58.950Z,19.95
2022-12-25T08:01:29.042Z,15.70
2022-12-25T08:03:57.956Z,14.77
2022-12-25T08:06:30.039Z,14.80
2022-12-25T08:08:57.788Z,17.27
2022-12-25T08:11:24.541Z,14.50
2022-12-25T08:13:51.310Z,16.70
2022-12-25T08:16:18.059Z,12.30
2022-12-25T08:18:44.882Z,16.20
2022-12-25T08:21:14.419Z,15.07
2022-12-25T08:23:43.006Z,13.88
2022-12-25T08:26:12.497Z,13.02
2022-12-25T08:28:39.710Z,15.93
2022-12-25T08:31:16.091Z,32.03
2022-12-25T08:33:44.261Z,24.35
2022-12-25T08:36:12.289Z,22.70
2022-12-25T08:38:39.549Z,19.38
2022-12-25T08:41:06.619Z,19.52
2022-12-25T08:43:33.298Z,20.98
2022-12-25T08:46:01.038Z,16.30
2022-12-25T08:48:28.324Z,26.25
2022-12-25T08:50:55.436Z,26.55
2022-12-25T08:53:22.828Z,21.13
2022-12-25T08:55:49.615Z,20.80
2022-12-25T08:58:17.338Z,25.40
2022-12-25T09:00:45.075Z,30.05
2022-12-25T09:03:12.457Z,29.35
2022-12-25T09:05:42.469Z,29.17
2022-12-25T09:08:09.588Z,25.38
2022-12-25T09:10:38.033Z,28.88
2022-12-25T09:13:05.388Z,23.02
2022-12-25T09:15:32.232Z,23.27
2022-12-25T09:17:58.950Z,20.83
2022-12-25T09:20:26.000Z,16.80
2022-12-25T09:22:52.933Z,22.77
2022-12-25T09:25:20.152Z,21.40
2022-12-25T09:27:47.008Z,28.90
2022-12-25T09:30:13.854Z,21.15
2022-12-25T09:32:41.061Z,21.83
2022-12-25T09:35:09.217Z,33.03
2022-12-25T09:37:36.449Z,26.00
2022-12-25T09:40:04.740Z,20.50
2022-12-25T09:42:34.844Z,22.58
2022-12-25T09:45:06.584Z,23.83
2022-12-25T09:47:36.312Z,21.13
2022-12-25T09:50:11.770Z,18.90
2022-12-25T09:53:04.799Z,20.63
2022-12-25T09:55:37.511Z,18.13
2022-12-25T09:58:11.614Z,23.15
2022-12-25T10:00:43.544Z,23.33
2022-12-25T10:04:11.838Z,21.27
2022-12-25T10:07:16.116Z,18.35
2022-12-25T10:10:06.081Z,24.52
2022-12-25T10:13:21.719Z,22.20
2022-12-25T10:18:47.872Z,15.48
2022-12-25T10:23:48.721Z,12.32
2022-12-25T10:26:25.643Z,17.83
2022-12-25T10:29:13.669Z,16.17
2022-12-25T10:31:42.117Z,11.10
2022-12-25T10:34:12.437Z,13.10
2022-12-25T10:36:39.121Z,16.45
2022-12-25T10:39:06.134Z,19.23
2022-12-25T10:42:24.371Z,14.98
2022-12-25T10:45:02.658Z,16.90
2022-12-25T10:47:34.305Z,17.05
2022-12-25T10:50:02.248Z,17.48
2022-12-25T10:52:29.943Z,14.98
2022-12-25T10:54:57.005Z,13.38
2022-12-25T10:57:26.227Z,16.48
2022-12-25T10:59:57.968Z,16.08
2022-12-25T11:02:30.318Z,10.38
2022-12-25T11:05:25.704Z,12.77
2022-12-25T11:07:56.197Z,12.63
2022-12-25T11:10:31.935Z,7.65
2022-12-25T11:13:00.475Z,11.50
2022-12-25T11:16:03.651Z,9.93
2022-12-25T11:18:35.311Z,6.97
2022-12-25T11:21:33.127Z,8.68
2022-12-25T11:24:07.780Z,7.38
2022-12-25T11:26:51.037Z,7.22
2022-12-25T11:29:42.765Z,6.80
2022-12-25T11:32:17.427Z,8.57
2022-12-25T11:34:46.036Z,8.07
2022-12-25T11:37:19.187Z,6.60
2022-12-25T11:39:46.002Z,5.70
2022-12-25T11:42:21.243Z,5.88
2022-12-25T11:45:17.701Z,8.95
2022-12-25T11:47:47.543Z,7.18
2022-12-25T11:50:28.421Z,10.85
2022-12-25T11:52:56.066Z,7.60
2022-12-25T11:55:59.653Z,7.22
2022-12-25T11:58:36.509Z,6.53
2022-12-25T12:01:23.540Z,7.60
2022-12-25T12:03:50.437Z,7.35
2022-12-25T12:06:35.189Z,7.78
2022-12-25T12:09:17.526Z,8.20
2022-12-25T12:11:50.120Z,8.15
2022-12-25T12:14:25.988Z,7.97
2022-12-25T12:16:52.767Z,10.98
2022-12-25T12:19:28.520Z,8.85
2022-12-25T12:22:00.718Z,8.32
2022-12-25T12:24:39.642Z,9.35
2022-12-25T12:27:19.830Z,5.22
2022-12-25T12:29:51.199Z,5.88
2022-12-25T12:32:37.043Z,6.38
2022-12-25T12:35:29.138Z,7.57
2022-12-25T12:37:58.467Z,5.72
2022-12-25T12:40:37.529Z,8.38
2022-12-25T12:43:05.503Z,9.70
2022-12-25T12:45:36.724Z,8.65
2022-12-25T12:48:15.615Z,6.57
2022-12-25T12:50:43.206Z,8.40
2022-12-25T12:53:42.944Z,7.60
2022-12-25T12:56:12.144Z,10.15
2022-12-25T12:58:45.373Z,7.40
2022-12-25T13:01:21.287Z,7.40
2022-12-25T13:04:22.128Z,10.73
2022-12-25T13:07:13.279Z,7.97
2022-12-25T13:10:24.700Z,7.97
2022-12-25T13:12:54.502Z,7.13
2022-12-25T13:15:23.806Z,6.15
2022-12-25T13:17:50.857Z,5.47
2022-12-25T13:20:25.442Z,6.97
2022-12-25T13:22:53.086Z,5.72
2022-12-25T13:25:24.103Z,7.82
2022-12-25T13:27:57.952Z,7.35
2022-12-25T13:30:25.442Z,6.68
2022-12-25T13:32:52.258Z,7.10
2022-12-25T13:35:21.426Z,6.68
2022-12-25T13:37:48.265Z,7.65
2022-12-25T13:40:26.817Z,5.72
2022-12-25T13:42:58.446Z,6.85
2022-12-25T13:45:31.292Z,9.23
2022-12-25T13:47:58.855Z,6.93
2022-12-25T13:50:32.121Z,6.40
2022-12-25T13:53:11.457Z,5.95
2022-12-25T13:55:38.257Z,5.80
2022-12-25T13:58:06.454Z,9.20
2022-12-25T14:00:38.418Z,6.38
2022-12-25T14:03:07.689Z,8.13
2022-12-25T14:05:42.092Z,5.97
2022-12-25T14:08:19.672Z,5.53
2022-12-25T14:10:49.847Z,7.30
2022-12-25T14:13:16.896Z,6.80
2022-12-25T14:15:45.953Z,4.40
2022-12-25T14:18:17.348Z,4.43
2022-12-25T14:20:59.575Z,7.72
2022-12-25T14:23:27.445Z,6.70
2022-12-25T14:25:54.090Z,7.95
2022-12-25T14:28:25.089Z,5.80
2022-12-25T14:30:51.916Z,6.53
2022-12-25T14:33:21.628Z,5.63
2022-12-25T14:35:48.931Z,6.47
2022-12-25T14:38:29.578Z,5.43
2022-12-25T14:41:05.697Z,6.57
2022-12-25T14:43:32.840Z,6.85
2022-12-25T14:46:01.856Z,8.95
2022-12-25T14:48:36.440Z,7.40
2022-12-25T14:51:08.692Z,8.52
2022-12-25T14:53:40.465Z,6.22
2022-12-25T14:56:07.944Z,6.53
2022-12-25T14:58:41.830Z,5.88
2022-12-25T15:01:20.357Z,6.20
2022-12-25T15:03:50.184Z,4.90
2022-12-25T15:06:22.736Z,4.40
2022-12-25T15:08:58.052Z,6.68
2022-12-25T15:11:24.818Z,5.68
2022-12-25T15:13:51.627Z,4.93
2022-12-25T15:16:23.930Z,6.47
2022-12-25T15:18:51.263Z,4.72
2022-12-25T15:21:24.710Z,8.52
2022-12-25T15:23:55.648Z,5.43
2022-12-25T15:26:23.057Z,5.18
2022-12-25T15:28:49.859Z,5.53
2022-12-25T15:31:21.408Z,5.40
2022-12-25T15:33:49.028Z,4.40
2022-12-25T15:36:15.776Z,5.82
2022-12-25T15:38:42.821Z,5.28
2022-12-25T15:41:34.495Z,6.30
2022-12-25T15:44:01.400Z,4.80
2022-12-25T15:46:28.222Z,6.95
2022-12-25T15:48:55.018Z,4.75
2022-12-25T15:51:21.813Z,5.88
2022-12-25T15:53:48.635Z,5.40
2022-12-25T15:56:15.666Z,7.32
2022-12-25T15:58:42.405Z,4.85
2022-12-25T16:01:19.208Z,6.00
2022-12-25T16:03:46.688Z,5.35
2022-12-25T16:06:17.993Z,4.75
2022-12-25T16:08:45.835Z,5.38
2022-12-25T16:11:16.177Z,6.68
2022-12-25T16:13:42.995Z,5.45
2022-12-25T16:16:09.755Z,6.25
2022-12-25T16:18:37.903Z,6.45
2022-12-25T16:21:12.642Z,6.05
2022-12-25T16:23:43.620Z,6.28
2022-12-25T16:26:10.309Z,8.30
2022-12-25T16:28:36.970Z,8.90
2022-12-25T16:31:04.046Z,10.27
2022-12-25T16:33:30.819Z,12.07
2022-12-25T16:35:57.564Z,13.30
2022-12-25T16:38:24.299Z,12.80
2022-12-25T16:40:58.809Z,12.00
2022-12-25T16:43:25.709Z,15.50
2022-12-25T16:45:52.643Z,10.52
2022-12-25T16:48:19.454Z,9.02
2022-12-25T16:50:46.187Z,11.98
2022-12-25T16:53:12.984Z,10.68
2022-12-25T16:55:39.943Z,11.77
2022-12-25T16:58:07.285Z,11.82
2022-12-25T17:00:33.947Z,11.20
2022-12-25T17:03:01.828Z,14.45
2022-12-25T17:05:28.806Z,12.50
2022-12-25T17:07:55.545Z,11.77
2022-12-25T17:10:22.425Z,12.20
2022-12-25T17:12:49.180Z,11.13
2022-12-25T17:15:16.248Z,12.18
2022-12-25T17:17:43.013Z,12.15
2022-12-25T17:20:10.376Z,9.93
2022-12-25T17:22:37.293Z,26.65
2022-12-25T17:25:04.261Z,24.92
2022-12-25T17:27:30.961Z,20.17
2022-12-25T17:29:57.699Z,15.60
2022-12-25T17:32:24.411Z,29.40
2022-12-25T17:34:51.224Z,21.73
2022-12-25T17:37:18.081Z,30.02
2022-12-25T17:39:44.849Z,12.98
2022-12-25T17:42:11.565Z,23.88
2022-12-25T17:44:38.194Z,24.73
2022-12-25T17:47:05.017Z,21.25
2022-12-25T17:49:31.818Z,12.75
2022-12-25T17:51:58.480Z,15.98
2022-12-25T17:54:25.154Z,11.05
2022-12-25T17:56:51.955Z,60.17
2022-12-25T17:59:19.014Z,89.78
2022-12-25T18:01:47.419Z,55.90
2022-12-25T18:04:14.402Z,37.63
2022-12-25T18:06:41.828Z,36.50
2022-12-25T18:09:09.995Z,33.55
2022-12-25T18:11:39.833Z,19.20
2022-12-25T18:14:07.938Z,19.48
2022-12-25T18:16:36.814Z,10.20
2022-12-25T18:19:04.064Z,11.70
2022-12-25T18:21:30.765Z,33.85
2022-12-25T18:23:57.867Z,19.40
2022-12-25T18:26:26.184Z,17.23
2022-12-25T18:28:53.144Z,12.73
2022-12-25T18:31:23.101Z,13.18
2022-12-25T18:33:50.386Z,14.05
2022-12-25T18:36:20.374Z,35.85
2022-12-25T18:38:48.716Z,45.17
2022-12-25T18:41:16.104Z,31.27
2022-12-25T18:43:52.288Z,31.90
2022-12-25T18:46:22.640Z,33.45
2022-12-25T18:48:49.606Z,18.10
2022-12-25T18:51:16.564Z,21.80
2022-12-25T18:53:43.457Z,30.20
2022-12-25T18:56:13.269Z,25.15
2022-12-25T18:58:40.222Z,27.05
2022-12-25T19:01:15.385Z,22.88
2022-12-25T19:03:42.111Z,20.35
2022-12-25T19:06:08.879Z,22.60
2022-12-25T19:08:36.112Z,20.88
2022-12-25T19:11:07.297Z,20.40
2022-12-25T19:13:34.090Z,20.10
2022-12-25T19:16:01.002Z,27.42
2022-12-25T19:18:27.968Z,21.60
2022-12-25T19:20:54.601Z,19.33
2022-12-25T19:23:21.413Z,26.00
2022-12-25T19:25:49.690Z,24.60
2022-12-25T19:28:17.923Z,23.67
2022-12-25T19:30:44.648Z,23.60
2022-12-25T19:33:17.510Z,22.30
2022-12-25T19:35:44.846Z,23.03
2022-12-25T19:38:11.684Z,28.63
2022-12-25T19:40:39.596Z,24.65
2022-12-25T19:43:06.837Z,21.67
2022-12-25T19:45:33.619Z,23.27
2022-12-25T19:48:00.416Z,24.27
2022-12-25T19:50:28.709Z,21.50
2022-12-25T19:52:59.758Z,20.38
2022-12-25T19:55:26.417Z,20.80
2022-12-25T19:57:54.160Z,16.75
2022-12-25T20:00:21.041Z,14.00
2022-12-25T20:02:47.971Z,13.48
2022-12-25T20:05:14.790Z,11.25
2022-12-25T20:07:41.655Z,12.98
2022-12-25T20:10:08.868Z,15.95
2022-12-25T20:12:35.777Z,18.38
2022-12-25T20:15:02.446Z,15.80
2022-12-25T20:17:29.302Z,11.93
2022-12-25T20:19:56.145Z,16.05
2022-12-25T20:22:22.871Z,14.80
2022-12-25T20:24:49.666Z,14.48
2022-12-25T20:27:16.411Z,12.75
2022-12-25T20:29:43.154Z,15.77
2022-12-25T20:32:10.031Z,10.77
2022-12-25T20:34:36.915Z,12.18
2022-12-25T20:37:04.019Z,12.60
2022-12-25T20:39:30.631Z,12.70
2022-12-25T20:41:57.465Z,15.82
2022-12-25T20:44:24.240Z,12.13
2022-12-25T20:46:50.932Z,15.60
2022-12-25T20:49:17.795Z,13.20
2022-12-25T20:51:44.457Z,12.77
2022-12-25T20:54:12.833Z,14.80
2022-12-25T20:56:40.497Z,17.63
2022-12-25T20:59:07.263Z,15.02
2022-12-25T21:01:34.075Z,13.55
2022-12-25T21:04:01.020Z,16.17
2022-12-25T21:06:27.917Z,10.63
2022-12-25T21:08:54.910Z,10.70
2022-12-25T21:11:22.189Z,10.00
2022-12-25T21:13:49.366Z,10.95
2022-12-25T21:16:20.007Z,9.35
2022-12-25T21:18:48.895Z,10.93
2022-12-25T21:21:16.021Z,10.63
2022-12-25T21:23:42.795Z,8.43
2022-12-25T21:26:15.811Z,11.23
2022-12-25T21:28:42.525Z,8.60
2022-12-25T21:31:09.813Z,8.30
2022-12-25T21:33:51.733Z,9.93
2022-12-25T21:36:30.970Z,7.40
2022-12-25T21:39:00.776Z,9.50
2022-12-25T21:41:28.452Z,8.68
2022-12-25T21:43:55.711Z,8.52
2022-12-25T21:46:22.689Z,18.60
2022-12-25T21:48:49.717Z,12.02
2022-12-25T21:51:41.015Z,9.48
2022-12-25T21:54:08.438Z,12.38
2022-12-25T21:56:43.178Z,11.85
2022-12-25T21:59:16.719Z,8.55
2022-12-25T22:01:43.894Z,9.38
2022-12-25T22:04:11.706Z,8.57
2022-12-25T22:06:57.138Z,7.35
2022-12-25T22:09:23.792Z,8.95
2022-12-25T22:12:09.168Z,10.85
2022-12-25T22:14:54.929Z,7.28
2022-12-25T22:17:49.845Z,8.38
2022-12-25T22:20:28.240Z,8.05
2022-12-25T22:22:55.096Z,7.63
2022-12-25T22:25:22.552Z,7.18
2022-12-25T22:27:49.945Z,7.47
2022-12-25T22:30:19.483Z,7.18
2022-12-25T22:32:46.652Z,5.90
2022-12-25T22:35:13.868Z,5.90
2022-12-25T22:37:41.959Z,5.32
2022-12-25T22:40:10.626Z,4.57
2022-12-25T22:42:37.642Z,5.13
2022-12-25T22:45:05.408Z,5.68
2022-12-25T22:47:32.364Z,5.97
2022-12-25T22:49:59.119Z,8.02
2022-12-25T22:52:25.994Z,7.18
2022-12-25T22:54:52.996Z,6.90
2022-12-25T22:57:19.863Z,5.82
2022-12-25T22:59:46.597Z,5.68
2022-12-25T23:02:13.429Z,7.15
2022-12-25T23:04:40.815Z,8.15
2022-12-25T23:07:07.565Z,7.75
2022-12-25T23:09:34.373Z,7.03
2022-12-25T23:12:01.081Z,6.07
2022-12-25T23:14:39.960Z,5.30
2022-12-25T23:17:31.237Z,7.15
2022-12-25T23:20:18.421Z,6.70
2022-12-25T23:23:04.858Z,4.95
2022-12-25T23:25:50.519Z,6.30
2022-12-25T23:28:40.064Z,5.90
2022-12-25T23:31:07.388Z,6.63
2022-12-25T23:33:34.230Z,5.53
2022-12-25T23:36:00.881Z,6.07
2022-12-25T23:38:27.604Z,6.50
2022-12-25T23:40:54.265Z,6.40
2022-12-25T23:43:21.150Z,5.65
2022-12-25T23:45:47.872Z,7.13
2022-12-25T23:48:14.610Z,8.63
2022-12-25T23:50:41.418Z,6.65
2022-12-25T23:53:08.151Z,4.93
2022-12-25T23:55:34.913Z,7.07
2022-12-25T23:58:01.776Z,6.53
